createdAt,value
2017-03-25T00:00:58.271Z,83.61
2017-03-25T00:01:58.290Z,83.42
2017-03-25T00:02:58.308Z,83.42
2017-03-25T00:03:58.325Z,83.32
2017-03-25T00:04:58.346Z,83.42
2017-03-25T00:05:58.404Z,83.61
2017-03-25T00:06:58.380Z,83.8
2017-03-25T00:07:58.397Z,83.61
2017-03-25T00:09:13.032Z,83.51
2017-03-25T00:09:58.434Z,83.8
2017-03-25T00:10:58.454Z,83.7
2017-03-25T00:11:58.473Z,83.32
2017-03-25T00:12:58.489Z,82.85
2017-03-25T00:13:58.507Z,83.23
2017-03-25T00:14:58.523Z,82.75
2017-03-25T00:15:58.541Z,83.23
2017-03-25T00:16:58.559Z,83.51
2017-03-25T00:17:58.578Z,83.32
2017-03-25T00:18:58.595Z,83.32
2017-03-25T00:19:58.914Z,83.51
2017-03-25T00:20:58.631Z,83.89
2017-03-25T00:22:58.668Z,84.17
2017-03-25T00:24:13.302Z,84.74
2017-03-25T00:24:58.706Z,84.8
2017-03-25T00:25:58.722Z,84.74
2017-03-25T00:26:58.739Z,84.89
2017-03-25T00:27:58.757Z,84.89
2017-03-25T00:28:58.775Z,84.89
2017-03-25T00:29:58.792Z,85.46
2017-03-25T00:30:58.810Z,85.31
2017-03-25T00:31:58.828Z,85.22
2017-03-25T00:32:58.846Z,84.94
2017-03-25T00:33:58.864Z,84.65
2017-03-25T00:34:58.882Z,84.94
2017-03-25T00:35:58.900Z,84.94
2017-03-25T00:36:58.917Z,84.94
2017-03-25T00:37:58.935Z,84.74
2017-03-25T00:38:58.955Z,84.7
2017-03-25T00:39:58.973Z,84.8
2017-03-25T00:40:58.688Z,84.84
2017-03-25T00:41:59.008Z,84.74
2017-03-25T00:42:59.026Z,84.74
2017-03-25T00:43:59.041Z,85.03
2017-03-25T00:44:59.059Z,85.31
2017-03-25T00:45:59.078Z,85.13
2017-03-25T00:47:59.113Z,85.41
2017-03-25T00:48:59.132Z,84.94
2017-03-25T00:49:59.149Z,85.13
2017-03-25T00:50:59.168Z,84.84
2017-03-25T00:51:59.190Z,84.65
2017-03-25T00:52:59.210Z,84.65
2017-03-25T00:53:59.220Z,84.84
2017-03-25T00:54:59.251Z,85.03
2017-03-25T00:56:13.871Z,84.74
2017-03-25T00:56:59.273Z,85.03
2017-03-25T00:57:59.290Z,84.46
2017-03-25T00:58:59.307Z,84.46
2017-03-25T00:59:59.326Z,84.55
2017-03-25T01:00:59.344Z,84.46
2017-03-25T01:01:59.361Z,84.17
2017-03-25T01:02:59.378Z,84.27
2017-03-25T01:03:59.396Z,84.08
2017-03-25T01:04:59.416Z,84.55
2017-03-25T01:05:59.433Z,84.84
2017-03-25T01:06:59.449Z,84.89
2017-03-25T01:08:59.484Z,84.99
2017-03-25T01:10:59.521Z,85.17
2017-03-25T01:12:14.154Z,84.89
2017-03-25T01:12:59.556Z,84.99
2017-03-25T01:13:59.573Z,85.27
2017-03-25T01:14:59.592Z,84.8
2017-03-25T01:15:59.617Z,84.94
2017-03-25T01:16:59.625Z,84.7
2017-03-25T01:17:59.643Z,84.8
2017-03-25T01:18:59.660Z,85.46
2017-03-25T01:19:59.680Z,85.27
2017-03-25T01:20:59.704Z,84.99
2017-03-25T01:21:59.715Z,85.74
2017-03-25T01:25:59.786Z,85.46
2017-03-25T01:26:59.802Z,85.46
2017-03-25T01:28:14.434Z,85.55
2017-03-25T01:28:59.836Z,85.55
2017-03-25T01:29:59.856Z,85.27
2017-03-25T01:30:59.871Z,85.55
2017-03-25T01:31:59.888Z,85.55
2017-03-25T01:32:59.906Z,85.46
2017-03-25T01:33:59.924Z,85.65
2017-03-25T01:34:59.951Z,85.46
2017-03-25T01:35:59.961Z,85.84
2017-03-25T01:36:59.982Z,85.84
2017-03-25T01:37:59.994Z,86.12
2017-03-25T01:39:00.212Z,85.74
2017-03-25T01:40:00.029Z,86.12
2017-03-25T01:42:00.067Z,86.22
2017-03-25T01:43:00.082Z,86.31
2017-03-25T01:44:14.714Z,85.65
2017-03-25T01:45:00.121Z,85.74
2017-03-25T01:46:00.134Z,85.93
2017-03-25T01:47:00.150Z,86.22
2017-03-25T01:48:00.168Z,86.41
2017-03-25T01:49:00.187Z,85.93
2017-03-25T01:50:00.205Z,86.31
2017-03-25T01:51:00.220Z,86.31
2017-03-25T01:52:00.239Z,86.41
2017-03-25T01:53:00.255Z,86.03
2017-03-25T01:54:00.271Z,86.41
2017-03-25T01:55:00.290Z,86.22
2017-03-25T01:56:00.308Z,86.12
2017-03-25T01:57:00.328Z,86.22
2017-03-25T01:58:00.342Z,86.22
2017-03-25T01:59:14.976Z,86.22
2017-03-25T02:00:00.383Z,86.12
2017-03-25T02:01:00.396Z,85.46
2017-03-25T02:02:00.412Z,85.27
2017-03-25T02:03:00.430Z,84.8
2017-03-25T02:04:00.451Z,84.99
2017-03-25T02:05:00.464Z,85.74
2017-03-25T02:06:00.484Z,85.65
2017-03-25T02:07:00.500Z,85.74
2017-03-25T02:08:00.517Z,86.03
2017-03-25T02:09:00.534Z,85.93
2017-03-25T02:10:00.247Z,87.07
2017-03-25T02:11:00.568Z,87.45
2017-03-25T02:12:00.587Z,87.83
2017-03-25T02:13:00.603Z,87.64
2017-03-25T02:14:00.621Z,88.11
2017-03-25T02:15:00.638Z,88.02
2017-03-25T02:16:00.658Z,88.02
2017-03-25T02:17:00.674Z,88.3
2017-03-25T02:18:00.691Z,88.21
2017-03-25T02:19:00.706Z,88.4
2017-03-25T02:20:00.728Z,88.11
2017-03-25T02:21:00.742Z,88.4
2017-03-25T02:22:00.770Z,88.3
2017-03-25T02:23:00.775Z,88.11
2017-03-25T02:24:00.793Z,88.4
2017-03-25T02:25:00.812Z,88.4
2017-03-25T02:26:00.832Z,88.3
2017-03-25T02:27:00.846Z,88.21
2017-03-25T02:28:00.906Z,88.11
2017-03-25T02:29:00.881Z,88.21
2017-03-25T02:30:00.902Z,88.4
2017-03-25T02:31:15.530Z,88.11
2017-03-25T02:32:00.932Z,88.02
2017-03-25T02:33:00.949Z,87.92
2017-03-25T02:34:00.967Z,87.35
2017-03-25T02:35:00.984Z,87.16
2017-03-25T02:36:01.002Z,86.98
2017-03-25T02:37:01.019Z,87.26
2017-03-25T02:38:01.035Z,88.02
2017-03-25T02:39:01.052Z,87.73
2017-03-25T02:40:01.070Z,88.11
2017-03-25T02:41:01.087Z,87.73
2017-03-25T02:42:01.103Z,87.26
2017-03-25T02:43:01.122Z,86.6
2017-03-25T02:44:01.139Z,86.98
2017-03-25T02:46:01.172Z,87.35
2017-03-25T02:47:15.807Z,86.69
2017-03-25T02:48:01.214Z,86.41
2017-03-25T02:49:01.225Z,86.41
2017-03-25T02:50:01.242Z,85.55
2017-03-25T02:51:01.261Z,85.36
2017-03-25T02:52:01.278Z,85.36
2017-03-25T02:53:01.298Z,85.74
2017-03-25T02:54:01.315Z,86.6
2017-03-25T02:55:01.331Z,87.45
2017-03-25T02:56:01.345Z,88.11
2017-03-25T02:57:01.366Z,88.21
2017-03-25T02:58:01.384Z,88.21
2017-03-25T02:59:01.399Z,88.11
2017-03-25T03:00:01.417Z,88.4
2017-03-25T03:01:01.432Z,87.92
2017-03-25T03:02:01.453Z,88.02
2017-03-25T03:03:16.080Z,88.02
2017-03-25T03:04:01.484Z,87.92
2017-03-25T03:05:01.508Z,87.92
2017-03-25T03:06:01.519Z,87.64
2017-03-25T03:07:01.533Z,88.02
2017-03-25T03:08:01.557Z,87.92
2017-03-25T03:09:01.577Z,88.4
2017-03-25T03:10:01.589Z,88.3
2017-03-25T03:11:01.604Z,88.4
2017-03-25T03:12:01.623Z,88.59
2017-03-25T03:13:01.640Z,88.96
2017-03-25T03:14:01.657Z,88.68
2017-03-25T03:15:01.676Z,88.68
2017-03-25T03:17:01.709Z,88.68
2017-03-25T03:18:01.727Z,88.87
2017-03-25T03:19:16.357Z,88.87
2017-03-25T03:20:01.760Z,88.4
2017-03-25T03:21:01.776Z,88.21
2017-03-25T03:22:01.794Z,88.3
2017-03-25T03:23:01.809Z,88.21
2017-03-25T03:24:01.831Z,88.21
2017-03-25T03:25:01.843Z,88.21
2017-03-25T03:26:01.860Z,88.11
2017-03-25T03:27:01.879Z,88.4
2017-03-25T03:28:01.898Z,87.83
2017-03-25T03:29:01.917Z,88.11
2017-03-25T03:30:01.933Z,87.87
2017-03-25T03:31:01.947Z,87.54
2017-03-25T03:33:01.984Z,87.26
2017-03-25T03:34:16.615Z,86.79
2017-03-25T03:35:02.018Z,86.88
2017-03-25T03:36:02.033Z,87.45
2017-03-25T03:37:02.051Z,87.26
2017-03-25T03:38:02.071Z,87.26
2017-03-25T03:39:02.090Z,87.02
2017-03-25T03:40:02.106Z,87.49
2017-03-25T03:41:02.120Z,87.3
2017-03-25T03:42:02.142Z,87.73
2017-03-25T03:43:02.157Z,88.3
2017-03-25T03:44:02.173Z,88.21
2017-03-25T03:45:02.193Z,88.11
2017-03-25T03:46:02.213Z,88.11
2017-03-25T03:47:02.226Z,88.21
2017-03-25T03:48:02.242Z,88.11
2017-03-25T03:49:02.260Z,87.3
2017-03-25T03:50:02.279Z,86.64
2017-03-25T03:51:02.291Z,87.4
2017-03-25T03:52:02.310Z,87.49
2017-03-25T03:53:02.346Z,86.35
2017-03-25T03:54:02.346Z,86.07
2017-03-25T03:55:02.363Z,86.07
2017-03-25T03:56:02.380Z,86.35
2017-03-25T03:57:02.398Z,86.16
2017-03-25T03:58:02.416Z,86.45
2017-03-25T03:59:02.429Z,86.45
2017-03-25T04:00:02.449Z,86.55
2017-03-25T04:02:02.483Z,85.88
2017-03-25T04:03:02.504Z,85.5
2017-03-25T04:04:02.516Z,86.07
2017-03-25T04:05:02.533Z,85.03
2017-03-25T04:06:17.166Z,85.5
2017-03-25T04:07:02.571Z,86.55
2017-03-25T04:08:02.586Z,87.21
2017-03-25T04:09:02.601Z,87.77
2017-03-25T04:10:02.618Z,87.68
2017-03-25T04:11:02.637Z,87.77
2017-03-25T04:12:02.655Z,87.3
2017-03-25T04:13:02.670Z,87.3
2017-03-25T04:14:02.689Z,87.21
2017-03-25T04:15:02.708Z,87.64
2017-03-25T04:16:02.766Z,87.92
2017-03-25T04:17:02.740Z,88.21
2017-03-25T04:18:03.058Z,88.11
2017-03-25T04:19:02.778Z,88.3
2017-03-25T04:21:02.810Z,88.16
2017-03-25T04:22:17.442Z,88.16
2017-03-25T04:23:02.849Z,87.87
2017-03-25T04:24:02.860Z,87.87
2017-03-25T04:25:02.878Z,87.92
2017-03-25T04:26:02.895Z,87.45
2017-03-25T04:27:02.911Z,86.98
2017-03-25T04:28:02.928Z,87.12
2017-03-25T04:29:02.946Z,86.98
2017-03-25T04:30:02.963Z,87.45
2017-03-25T04:31:02.981Z,87.26
2017-03-25T04:32:02.997Z,87.3
2017-03-25T04:33:03.015Z,86.98
2017-03-25T04:34:03.034Z,87.12
2017-03-25T04:35:03.049Z,86.64
2017-03-25T04:36:03.068Z,87.21
2017-03-25T04:37:03.083Z,87.02
2017-03-25T04:38:17.716Z,86.88
2017-03-25T04:39:03.119Z,87.12
2017-03-25T04:40:03.134Z,86.41
2017-03-25T04:41:03.153Z,86.22
2017-03-25T04:42:03.169Z,85.97
2017-03-25T04:43:03.188Z,85.22
2017-03-25T04:44:03.209Z,85.5
2017-03-25T04:45:03.223Z,84.94
2017-03-25T04:46:03.240Z,85.31
2017-03-25T04:47:03.258Z,85.22
2017-03-25T04:48:03.274Z,84.84
2017-03-25T04:49:03.289Z,85.03
2017-03-25T04:51:03.373Z,84.55
2017-03-25T04:52:03.342Z,84.17
2017-03-25T04:53:03.361Z,83.8
2017-03-25T04:54:17.991Z,83.98
2017-03-25T04:55:03.392Z,84.08
2017-03-25T04:56:03.426Z,84.08
2017-03-25T04:57:03.430Z,84.27
2017-03-25T04:58:03.445Z,83.98
2017-03-25T04:59:03.464Z,83.7
2017-03-25T05:00:03.485Z,83.04
2017-03-25T05:01:03.498Z,83.13
2017-03-25T05:02:03.515Z,82.75
2017-03-25T05:04:03.547Z,83.04
2017-03-25T05:05:03.568Z,82.75
2017-03-25T05:07:03.602Z,82.18
2017-03-25T05:08:03.619Z,81.9
2017-03-25T05:09:18.250Z,81.9
2017-03-25T05:10:03.654Z,82.18
2017-03-25T05:11:03.671Z,82.75
2017-03-25T05:12:03.687Z,82.56
2017-03-25T05:13:03.704Z,81.99
2017-03-25T05:14:03.723Z,81.9
2017-03-25T05:15:03.736Z,81.05
2017-03-25T05:16:03.756Z,80.95
2017-03-25T05:17:03.773Z,80.38
2017-03-25T05:18:03.791Z,80.1
2017-03-25T05:19:03.807Z,80
2017-03-25T05:22:03.859Z,79.44
2017-03-25T05:23:03.879Z,78.96
2017-03-25T05:24:03.894Z,77.92
2017-03-25T05:25:03.911Z,78.02
2017-03-25T05:26:03.944Z,78.05
2017-03-25T05:27:03.952Z,78.24
2017-03-25T05:28:03.963Z,77.96
2017-03-25T05:29:03.980Z,77.96
2017-03-25T05:30:03.999Z,77.29
2017-03-25T05:31:04.020Z,77.11
2017-03-25T05:32:04.034Z,76.92
2017-03-25T05:33:04.050Z,77.11
2017-03-25T05:34:04.067Z,76.63
2017-03-25T05:35:04.092Z,77.11
2017-03-25T05:38:04.139Z,75.96
2017-03-25T05:39:04.206Z,75.4
2017-03-25T05:40:04.172Z,75.21
2017-03-25T05:41:18.804Z,75.59
2017-03-25T05:42:04.210Z,75.49
2017-03-25T05:43:04.226Z,75.68
2017-03-25T05:44:04.242Z,74.83
2017-03-25T05:45:04.277Z,74.73
2017-03-25T05:46:04.280Z,75.21
2017-03-25T05:47:04.294Z,75.31
2017-03-25T05:48:04.311Z,74.73
2017-03-25T05:49:04.330Z,74.83
2017-03-25T05:50:04.347Z,74.26
2017-03-25T05:51:04.364Z,74.26
2017-03-25T05:52:04.381Z,74.16
2017-03-25T05:53:04.401Z,74.16
2017-03-25T05:54:04.417Z,74.2
2017-03-25T05:55:04.435Z,73.88
2017-03-25T05:56:04.455Z,73.82
2017-03-25T05:57:19.086Z,73.92
2017-03-25T05:58:04.490Z,73.82
2017-03-25T05:59:04.507Z,73.72
2017-03-25T06:00:04.524Z,74.01
2017-03-25T06:01:04.540Z,74.3
2017-03-25T06:02:04.558Z,73.72
2017-03-25T06:03:04.576Z,73.25
2017-03-25T06:04:04.595Z,73.07
2017-03-25T06:05:04.611Z,72.88
2017-03-25T06:06:04.631Z,72.88
2017-03-25T06:07:04.648Z,72.78
2017-03-25T06:09:04.688Z,72.49
2017-03-25T06:10:04.702Z,71.64
2017-03-25T06:11:04.718Z,71.92
2017-03-25T06:12:04.741Z,71.64
2017-03-25T06:13:19.377Z,72.11
2017-03-25T06:14:04.776Z,71.26
2017-03-25T06:15:04.793Z,71.26
2017-03-25T06:16:04.810Z,71.26
2017-03-25T06:17:04.829Z,70.92
2017-03-25T06:18:04.845Z,71.2
2017-03-25T06:19:04.866Z,70.44
2017-03-25T06:20:04.883Z,70.54
2017-03-25T06:21:04.902Z,70.44
2017-03-25T06:22:04.919Z,71.2
2017-03-25T06:23:04.937Z,71.2
2017-03-25T06:24:04.956Z,70.44
2017-03-25T06:25:04.973Z,70.73
2017-03-25T06:26:04.997Z,70.06
2017-03-25T06:27:05.014Z,69.68
2017-03-25T06:28:05.030Z,69.3
2017-03-25T06:29:19.663Z,69.59
2017-03-25T06:30:05.066Z,68.96
2017-03-25T06:31:05.088Z,68.26
2017-03-25T06:32:05.103Z,68.1
2017-03-25T06:33:05.167Z,68.19
2017-03-25T06:34:05.141Z,67.72
2017-03-25T06:35:05.164Z,67.63
2017-03-25T06:36:05.179Z,67.63
2017-03-25T06:37:05.199Z,67.34
2017-03-25T06:38:05.219Z,67.72
2017-03-25T06:40:05.262Z,67.38
2017-03-25T06:42:05.297Z,67.28
2017-03-25T06:43:05.317Z,67.63
2017-03-25T06:44:19.950Z,66.61
2017-03-25T06:45:05.354Z,66.33
2017-03-25T06:46:05.373Z,65.76
2017-03-25T06:47:05.396Z,66.33
2017-03-25T06:48:05.413Z,65.67
2017-03-25T06:49:05.433Z,66.33
2017-03-25T06:50:05.452Z,65.76
2017-03-25T06:51:05.474Z,66.24
2017-03-25T06:52:05.495Z,65.67
2017-03-25T06:53:05.513Z,65.47
2017-03-25T06:54:05.541Z,64.72
2017-03-25T06:55:05.551Z,65.28
2017-03-25T06:56:05.629Z,64.62
2017-03-25T06:57:05.592Z,64.72
2017-03-25T06:58:05.612Z,64.72
2017-03-25T06:59:05.632Z,65
2017-03-25T07:00:05.351Z,64.9
2017-03-25T07:01:05.670Z,65.03
2017-03-25T07:02:05.691Z,64.62
2017-03-25T07:03:06.015Z,65.13
2017-03-25T07:04:05.733Z,64.56
2017-03-25T07:05:05.750Z,63.99
2017-03-25T07:06:05.772Z,63.99
2017-03-25T07:07:05.793Z,65.03
2017-03-25T07:08:05.813Z,64.75
2017-03-25T07:10:05.852Z,63.89
2017-03-25T07:11:05.880Z,63.7
2017-03-25T07:12:05.893Z,63.79
2017-03-25T07:14:05.934Z,63.89
2017-03-25T07:15:05.648Z,63.89
2017-03-25T07:16:20.589Z,64.56
2017-03-25T07:17:05.995Z,64.69
2017-03-25T07:18:06.015Z,64.4
2017-03-25T07:19:05.730Z,63.92
2017-03-25T07:20:06.054Z,63.64
2017-03-25T07:21:06.076Z,63.35
2017-03-25T07:22:06.098Z,62.78
2017-03-25T07:23:06.121Z,62.59
2017-03-25T07:24:06.142Z,63.07
2017-03-25T07:25:06.161Z,62.53
2017-03-25T07:26:06.182Z,61.86
2017-03-25T07:28:06.229Z,61.42
2017-03-25T07:29:06.249Z,60.18
2017-03-25T07:30:06.267Z,60.08
2017-03-25T07:31:06.291Z,59.89
2017-03-25T07:32:20.928Z,60.27
2017-03-25T07:33:06.337Z,60.27
2017-03-25T07:34:06.358Z,59.45
2017-03-25T07:35:06.381Z,59.99
2017-03-25T07:36:06.401Z,59.32
2017-03-25T07:37:06.424Z,59.51
2017-03-25T07:38:06.446Z,59.42
2017-03-25T07:39:06.470Z,60.46
2017-03-25T07:40:06.490Z,60.18
2017-03-25T07:41:06.515Z,59.8
2017-03-25T07:42:06.536Z,59.8
2017-03-25T07:44:06.582Z,59.8
2017-03-25T07:45:06.603Z,60.27
2017-03-25T07:46:06.623Z,60.37
2017-03-25T07:47:06.648Z,60.56
2017-03-25T07:48:21.285Z,60.27
2017-03-25T07:49:06.690Z,60.56
2017-03-25T07:50:06.713Z,60.46
2017-03-25T07:51:06.733Z,60.08
2017-03-25T07:52:06.755Z,59.7
2017-03-25T07:53:06.780Z,59.7
2017-03-25T07:54:06.812Z,59.89
2017-03-25T07:55:06.822Z,59.8
2017-03-25T07:56:06.845Z,60.75
2017-03-25T07:57:06.867Z,60.18
2017-03-25T07:59:06.909Z,61.13
2017-03-25T08:00:06.933Z,60.08
2017-03-25T08:02:06.977Z,60.08
2017-03-25T08:03:06.998Z,59.61
2017-03-25T08:04:21.636Z,59.32
2017-03-25T08:05:07.041Z,58.97
2017-03-25T08:06:07.064Z,59.92
2017-03-25T08:07:07.085Z,59.06
2017-03-25T08:08:07.107Z,59.45
2017-03-25T08:09:07.129Z,58.87
2017-03-25T08:10:07.149Z,58.87
2017-03-25T08:11:07.172Z,59.06
2017-03-25T08:12:07.195Z,58.5
2017-03-25T08:13:07.217Z,58.4
2017-03-25T08:14:07.239Z,58.4
2017-03-25T08:15:07.260Z,58.5
2017-03-25T08:17:07.307Z,57.57
2017-03-25T08:18:07.328Z,57
2017-03-25T08:19:21.968Z,56.62
2017-03-25T08:20:07.374Z,55.95
2017-03-25T08:21:07.394Z,55.47
2017-03-25T08:22:07.417Z,55.47
2017-03-25T08:23:07.445Z,56.04
2017-03-25T08:24:07.465Z,54.43
2017-03-25T08:25:07.483Z,54.8
2017-03-25T08:26:07.506Z,55.38
2017-03-25T08:27:07.529Z,55.76
2017-03-25T08:28:07.553Z,54.71
2017-03-25T08:30:07.599Z,55.76
2017-03-25T08:31:07.620Z,55.19
2017-03-25T08:32:07.640Z,54.9
2017-03-25T08:33:07.663Z,54.33
2017-03-25T08:34:07.686Z,54.61
2017-03-25T08:35:07.716Z,54.8
2017-03-25T08:36:07.425Z,54.14
2017-03-25T08:37:07.752Z,54.9
2017-03-25T08:38:07.775Z,54.52
2017-03-25T08:39:07.801Z,54.61
2017-03-25T08:40:07.818Z,54.71
2017-03-25T08:41:07.892Z,54.04
2017-03-25T08:42:07.868Z,53.09
2017-03-25T08:43:08.041Z,52.71
2017-03-25T08:44:08.062Z,53.19
2017-03-25T08:45:07.930Z,53.28
2017-03-25T08:46:07.952Z,52.42
2017-03-25T08:47:07.976Z,52.42
2017-03-25T08:48:07.996Z,52.14
2017-03-25T08:49:08.020Z,52.14
2017-03-25T08:50:07.737Z,52.73
2017-03-25T08:51:22.681Z,50.73
2017-03-25T08:52:08.086Z,51.4
2017-03-25T08:53:08.113Z,51.78
2017-03-25T08:54:08.131Z,51.02
2017-03-25T08:55:08.150Z,51.59
2017-03-25T08:56:08.172Z,50.45
2017-03-25T08:57:08.200Z,51.21
2017-03-25T08:58:08.219Z,51.59
2017-03-25T08:59:08.246Z,49.78
2017-03-25T09:00:08.261Z,49.59
2017-03-25T09:01:08.283Z,49.68
2017-03-25T09:02:08.305Z,48.94
2017-03-25T09:03:08.331Z,48.28
2017-03-25T09:04:08.048Z,47.32
2017-03-25T09:06:08.397Z,46.84
2017-03-25T09:07:23.039Z,46.47
2017-03-25T09:08:08.442Z,47.03
2017-03-25T09:09:08.462Z,46.94
2017-03-25T09:10:08.484Z,45.13
2017-03-25T09:11:08.507Z,42.84
2017-03-25T09:12:08.225Z,41.96
2017-03-25T09:13:08.557Z,41.48
2017-03-25T09:14:08.574Z,41.39
2017-03-25T09:15:08.598Z,40.44
2017-03-25T09:16:08.618Z,38.81
2017-03-25T09:17:08.644Z,38.91
2017-03-25T09:18:08.666Z,36.9
2017-03-25T09:19:08.691Z,36.33
2017-03-25T09:20:08.710Z,35.47
2017-03-25T09:21:08.733Z,35.66
2017-03-25T09:22:08.762Z,34.81
2017-03-25T09:23:23.394Z,34.33
2017-03-25T09:24:08.804Z,34.42
2017-03-25T09:25:08.823Z,34.33
2017-03-25T09:26:08.849Z,34.52
2017-03-25T09:27:08.872Z,33.18
2017-03-25T09:28:08.588Z,33.2
2017-03-25T09:29:08.913Z,33.49
2017-03-25T09:30:08.937Z,32.73
2017-03-25T09:31:08.960Z,31.5
2017-03-25T09:32:08.981Z,31.21
2017-03-25T09:33:09.006Z,32.17
2017-03-25T09:34:09.035Z,32.74
2017-03-25T09:35:09.094Z,31.12
2017-03-25T09:37:09.099Z,30.24
2017-03-25T09:38:08.817Z,30.05
2017-03-25T09:39:23.761Z,31.09
2017-03-25T09:40:09.168Z,30.63
2017-03-25T09:41:09.189Z,31.1
2017-03-25T09:42:09.217Z,30.43
2017-03-25T09:43:09.237Z,30.83
2017-03-25T09:44:09.262Z,29.88
2017-03-25T09:45:09.285Z,30.24
2017-03-25T09:46:09.306Z,30.43
2017-03-25T09:47:09.332Z,30.63
2017-03-25T09:48:09.353Z,30.63
2017-03-25T09:50:09.403Z,32.84
2017-03-25T09:51:09.431Z,33.12
2017-03-25T09:52:09.449Z,32.45
2017-03-25T09:53:09.473Z,31.79
2017-03-25T09:54:24.114Z,31.13
2017-03-25T09:55:09.521Z,32.18
2017-03-25T09:56:09.543Z,33.04
2017-03-25T09:57:09.571Z,32.37
2017-03-25T09:58:09.595Z,31.99
2017-03-25T09:59:09.620Z,32.76
2017-03-25T10:00:09.639Z,32.47
2017-03-25T10:01:09.665Z,31.13
2017-03-25T10:02:09.385Z,30.56
2017-03-25T10:03:09.758Z,30.27
2017-03-25T10:04:09.737Z,32.37
2017-03-25T10:05:09.762Z,31.05
2017-03-25T10:06:09.481Z,31.82
2017-03-25T10:07:09.825Z,30.86
2017-03-25T10:08:09.834Z,31.05
2017-03-25T10:09:09.857Z,30.67
2017-03-25T10:10:09.881Z,30.19
2017-03-25T10:11:09.906Z,30.86
2017-03-25T10:12:09.624Z,31.43
2017-03-25T10:13:09.955Z,31.16
2017-03-25T10:14:09.978Z,29.92
2017-03-25T10:15:10.004Z,30.69
2017-03-25T10:16:10.027Z,30.48
2017-03-25T10:17:10.050Z,31.05
2017-03-25T10:18:09.776Z,32.1
2017-03-25T10:19:10.101Z,31.43
2017-03-25T10:20:10.124Z,31.43
2017-03-25T10:21:10.151Z,32.49
2017-03-25T10:22:10.173Z,31.34
2017-03-25T10:23:10.202Z,31.42
2017-03-25T10:24:10.226Z,32.37
2017-03-25T10:25:10.551Z,32.95
2017-03-25T10:26:24.891Z,32.39
2017-03-25T10:27:10.297Z,30.85
2017-03-25T10:28:10.324Z,31.04
2017-03-25T10:29:10.346Z,31.71
2017-03-25T10:30:10.369Z,32.95
2017-03-25T10:31:10.395Z,32.87
2017-03-25T10:32:10.421Z,31.24
2017-03-25T10:33:10.446Z,31.15
2017-03-25T10:34:10.472Z,31.82
2017-03-25T10:35:10.493Z,33.06
2017-03-25T10:36:10.517Z,32.49
2017-03-25T10:37:10.542Z,31.43
2017-03-25T10:38:10.266Z,32.2
2017-03-25T10:39:10.592Z,32.5
2017-03-25T10:40:10.353Z,31.64
2017-03-25T10:41:10.641Z,32.21
2017-03-25T10:42:25.282Z,32.03
2017-03-25T10:43:10.691Z,31.26
2017-03-25T10:44:10.413Z,30.11
2017-03-25T10:45:10.740Z,30
2017-03-25T10:46:10.460Z,30.86
2017-03-25T10:47:10.787Z,32.39
2017-03-25T10:48:10.811Z,31.24
2017-03-25T10:49:10.837Z,30.58
2017-03-25T10:50:10.961Z,31.24
2017-03-25T10:51:10.579Z,31.82
2017-03-25T10:52:10.909Z,33.15
2017-03-25T10:53:10.634Z,31.34
2017-03-25T10:55:10.981Z,33.44
2017-03-25T10:56:11.005Z,33.54
2017-03-25T10:57:11.030Z,33.17
2017-03-25T10:58:25.670Z,32.03
2017-03-25T10:59:11.119Z,31.63
2017-03-25T11:00:11.103Z,32.39
2017-03-25T11:01:11.126Z,32.29
2017-03-25T11:02:11.151Z,32.97
2017-03-25T11:03:11.175Z,32.2
2017-03-25T11:04:11.200Z,32.87
2017-03-25T11:05:11.232Z,33.75
2017-03-25T11:06:11.245Z,33.07
2017-03-25T11:07:11.269Z,33.75
2017-03-25T11:08:11.295Z,32.31
2017-03-25T11:12:11.393Z,33.07
2017-03-25T11:13:11.473Z,32.5
2017-03-25T11:14:26.055Z,32.41
2017-03-25T11:15:11.462Z,32.03
2017-03-25T11:16:11.487Z,32.12
2017-03-25T11:17:11.207Z,33.54
2017-03-25T11:18:11.231Z,33.25
2017-03-25T11:19:11.559Z,32.58
2017-03-25T11:20:11.583Z,33.35
2017-03-25T11:21:11.609Z,33.92
2017-03-25T11:22:11.630Z,33.44
2017-03-25T11:25:11.704Z,34.09
2017-03-25T11:26:11.724Z,34.01
2017-03-25T11:27:11.754Z,34.01
2017-03-25T11:28:11.780Z,33.64
2017-03-25T11:29:26.415Z,33.06
2017-03-25T11:30:11.824Z,34.01
2017-03-25T11:31:11.844Z,34.4
2017-03-25T11:32:11.873Z,35.35
2017-03-25T11:33:11.893Z,34.61
2017-03-25T11:34:11.919Z,33.75
2017-03-25T11:35:11.940Z,33.17
2017-03-25T11:36:11.666Z,33.56
2017-03-25T11:37:11.987Z,32.97
2017-03-25T11:38:12.009Z,34.2
2017-03-25T11:40:12.057Z,32.1
2017-03-25T11:41:11.782Z,33.15
2017-03-25T11:42:12.104Z,32.49
2017-03-25T11:43:12.131Z,32.49
2017-03-25T11:44:12.156Z,33.71
2017-03-25T11:45:12.177Z,34.2
2017-03-25T11:46:12.199Z,34.01
2017-03-25T11:47:12.224Z,33.92
2017-03-25T11:48:12.250Z,33.54
2017-03-25T11:49:12.271Z,33.36
2017-03-25T11:50:12.295Z,34.7
2017-03-25T11:51:12.319Z,34.42
2017-03-25T11:52:12.342Z,33.56
2017-03-25T11:53:12.368Z,33.17
2017-03-25T11:58:12.484Z,32.87
2017-03-25T11:59:12.508Z,32.2
2017-03-25T12:00:12.575Z,32.01
2017-03-25T12:01:27.171Z,32.29
2017-03-25T12:02:12.577Z,32.78
2017-03-25T12:03:12.606Z,32.12
2017-03-25T12:04:12.626Z,31.72
2017-03-25T12:05:12.650Z,33.33
2017-03-25T12:06:12.677Z,33.15
2017-03-25T12:07:12.703Z,32.58
2017-03-25T12:08:12.725Z,32.49
2017-03-25T12:09:12.746Z,32.78
2017-03-25T12:10:12.768Z,32.97
2017-03-25T12:11:12.790Z,33.64
2017-03-25T12:12:12.813Z,33.25
2017-03-25T12:14:12.865Z,32.78
2017-03-25T12:15:12.883Z,33.35
2017-03-25T12:16:12.908Z,33.06
2017-03-25T12:17:27.548Z,32.68
2017-03-25T12:18:12.955Z,33.25
2017-03-25T12:19:12.977Z,33.54
2017-03-25T12:20:13.005Z,33.64
2017-03-25T12:21:13.025Z,33.44
2017-03-25T12:22:13.047Z,33.92
2017-03-25T12:23:13.073Z,33.64
2017-03-25T12:24:13.094Z,33.73
2017-03-25T12:25:13.122Z,34.19
2017-03-25T12:26:13.140Z,34.78
2017-03-25T12:27:13.166Z,34.11
2017-03-25T12:28:13.189Z,35.26
2017-03-25T12:29:13.212Z,35.64
2017-03-25T12:30:13.236Z,34.88
2017-03-25T12:31:13.259Z,34.86
2017-03-25T12:32:13.283Z,35.91
2017-03-25T12:33:27.922Z,35.72
2017-03-25T12:34:13.327Z,34.86
2017-03-25T12:35:13.355Z,35.43
2017-03-25T12:36:13.374Z,36.19
2017-03-25T12:37:13.400Z,36.96
2017-03-25T12:38:13.422Z,36.48
2017-03-25T12:39:13.446Z,36.19
2017-03-25T12:40:13.468Z,36.96
2017-03-25T12:41:13.493Z,36
2017-03-25T12:42:13.516Z,36.58
2017-03-25T12:43:13.538Z,36.19
2017-03-25T12:44:13.559Z,35.72
2017-03-25T12:45:13.583Z,36.29
2017-03-25T12:46:13.607Z,36.31
2017-03-25T12:47:13.630Z,36.12
2017-03-25T12:49:28.294Z,35.83
2017-03-25T12:50:13.398Z,35.94
2017-03-25T12:51:13.729Z,35.85
2017-03-25T12:52:13.745Z,35.94
2017-03-25T12:53:13.772Z,35.57
2017-03-25T12:54:13.795Z,36.52
2017-03-25T12:55:13.819Z,35.94
2017-03-25T12:56:13.842Z,35.74
2017-03-25T12:57:13.862Z,36.69
2017-03-25T12:58:13.889Z,36.88
2017-03-25T12:59:13.910Z,36.88
2017-03-25T13:00:13.935Z,37.93
2017-03-25T13:03:14.006Z,37.36
2017-03-25T13:04:28.645Z,37.17
2017-03-25T13:05:14.054Z,37.26
2017-03-25T13:06:14.076Z,37.84
2017-03-25T13:07:14.098Z,37.55
2017-03-25T13:08:14.125Z,37.84
2017-03-25T13:09:14.146Z,37.26
2017-03-25T13:10:14.169Z,38.12
2017-03-25T13:11:14.190Z,38.32
2017-03-25T13:12:14.219Z,37.93
2017-03-25T13:13:14.237Z,38.51
2017-03-25T13:14:14.264Z,38.32
2017-03-25T13:15:14.284Z,38.6
2017-03-25T13:16:14.311Z,39.08
2017-03-25T13:18:14.358Z,39.37
2017-03-25T13:19:14.379Z,39.56
2017-03-25T13:20:14.402Z,39.08
2017-03-25T13:21:14.423Z,40.52
2017-03-25T13:22:14.451Z,40.52
2017-03-25T13:23:14.473Z,40.8
2017-03-25T13:24:14.495Z,40.59
2017-03-25T13:25:14.517Z,40.78
2017-03-25T13:26:14.237Z,40.88
2017-03-25T13:27:14.566Z,41.83
2017-03-25T13:28:14.588Z,41.55
2017-03-25T13:29:14.610Z,41.83
2017-03-25T13:31:14.656Z,42.02
2017-03-25T13:32:14.679Z,42.24
2017-03-25T13:33:14.709Z,41.85
2017-03-25T13:34:14.424Z,43.07
2017-03-25T13:35:14.750Z,42.79
2017-03-25T13:36:29.389Z,42.69
2017-03-25T13:37:14.799Z,43.26
2017-03-25T13:38:14.819Z,43.93
2017-03-25T13:39:14.541Z,43.74
2017-03-25T13:40:14.870Z,43.29
2017-03-25T13:41:14.889Z,43
2017-03-25T13:42:14.911Z,42.79
2017-03-25T13:43:14.635Z,43.17
2017-03-25T13:44:14.960Z,44.7
2017-03-25T13:45:14.982Z,43.86
2017-03-25T13:46:15.004Z,44.41
2017-03-25T13:47:15.032Z,44.41
2017-03-25T13:49:15.076Z,45.08